Time,TemperatureF,DewpointF,PressureIn,WindDirection,WindDirectionDegrees,WindSpeedMPH,WindSpeedGustMPH,Humidity,HourlyPrecipIn,Conditions,Clouds,dailyrainin,SoftwareType,DateUTC
2013-02-15 00:02:00,32.0,29.0,30.21,NNW,337,6.0,9.0,88,0.00,,,0.00,,2013-02-15 06:02:00,
2013-02-15 00:11:00,29.0,26.0,30.22,North,356,6.0,13.0,88,0.00,,,0.00,,2013-02-15 06:11:00,
2013-02-15 00:21:00,29.0,26.0,30.22,North,356,6.0,13.0,88,0.00,,,0.00,,2013-02-15 06:21:00,
2013-02-15 00:31:00,30.0,27.0,30.23,North,359,6.0,11.0,87,0.00,,,0.00,,2013-02-15 06:31:00,
2013-02-15 00:42:00,30.0,27.0,30.23,North,359,6.0,11.0,87,0.00,,,0.00,,2013-02-15 06:42:00,
2013-02-15 00:52:00,29.0,24.0,30.24,North,351,4.0,10.0,80,0.00,,,0.00,,2013-02-15 06:52:00,
2013-02-15 01:01:00,29.0,21.0,30.25,NNW,347,8.0,12.0,73,0.00,,,0.00,,2013-02-15 07:01:00,
2013-02-15 01:11:00,29.0,21.0,30.25,NNW,347,8.0,12.0,73,0.00,,,0.00,,2013-02-15 07:11:00,
2013-02-15 01:21:00,29.0,21.0,30.27,NW,317,5.0,9.0,71,0.00,,,0.00,,2013-02-15 07:21:00,
2013-02-15 01:31:00,29.0,18.0,30.27,NNW,345,5.0,13.0,64,0.00,,,0.00,,2013-02-15 07:31:00,
2013-02-15 01:41:00,29.0,18.0,30.27,NNW,345,5.0,13.0,64,0.00,,,0.00,,2013-02-15 07:41:00,
2013-02-15 01:52:00,28.0,18.0,30.28,NNW,335,4.0,12.0,66,0.00,,,0.00,,2013-02-15 07:52:00,
2013-02-15 02:01:00,28.0,17.0,30.29,NNW,339,5.0,13.0,64,0.00,,,0.00,,2013-02-15 08:01:00,
2013-02-15 02:11:00,27.0,17.0,30.29,NNW,328,6.0,13.0,65,0.00,,,0.00,,2013-02-15 08:11:00,
2013-02-15 02:21:00,27.0,17.0,30.29,NNW,328,6.0,13.0,65,0.00,,,0.00,,2013-02-15 08:21:00,
2013-02-15 02:31:00,27.0,16.0,30.30,NW,319,7.0,11.0,64,0.00,,,0.00,,2013-02-15 08:31:00,
2013-02-15 02:41:00,27.0,16.0,30.30,NW,319,7.0,11.0,64,0.00,,,0.00,,2013-02-15 08:41:00,
2013-02-15 02:53:00,26.0,16.0,30.31,NNW,345,5.0,10.0,65,0.00,,,0.00,,2013-02-15 08:53:00,
2013-02-15 03:01:00,26.0,17.0,30.31,NW,326,3.0,11.0,67,0.00,,,0.00,,2013-02-15 09:01:00,
2013-02-15 03:12:00,26.0,17.0,30.31,NW,326,3.0,11.0,67,0.00,,,0.00,,2013-02-15 09:12:00,
2013-02-15 03:21:00,24.0,15.0,30.33,NNW,334,4.0,7.0,67,0.00,,,0.00,,2013-02-15 09:21:00,
2013-02-15 03:32:00,24.0,15.0,30.33,NW,324,4.0,8.0,67,0.00,,,0.00,,2013-02-15 09:32:00,
2013-02-15 03:41:00,24.0,15.0,30.33,NW,324,4.0,8.0,67,0.00,,,0.00,,2013-02-15 09:41:00,
2013-02-15 03:52:00,24.0,15.0,30.33,NNW,329,4.0,7.0,67,0.00,,,0.00,,2013-02-15 09:52:00,
2013-02-15 04:01:00,23.0,13.0,30.34,NW,325,2.0,9.0,66,0.00,,,0.00,,2013-02-15 10:01:00,
2013-02-15 04:11:00,23.0,13.0,30.34,NW,325,2.0,9.0,66,0.00,,,0.00,,2013-02-15 10:11:00,
2013-02-15 04:21:00,22.0,12.0,30.35,NNW,335,4.0,8.0,66,0.00,,,0.00,,2013-02-15 10:21:00,
2013-02-15 04:31:00,21.0,12.0,30.35,NW,312,2.0,6.0,67,0.00,,,0.00,,2013-02-15 10:31:00,
2013-02-15 04:41:00,21.0,12.0,30.35,NW,312,2.0,6.0,67,0.00,,,0.00,,2013-02-15 10:41:00,
2013-02-15 04:51:00,21.0,12.0,30.35,NW,309,2.0,5.0,68,0.00,,,0.00,,2013-02-15 10:51:00,
2013-02-15 05:01:00,20.0,11.0,30.37,WNW,301,3.0,7.0,68,0.00,,,0.00,,2013-02-15 11:01:00,
2013-02-15 05:11:00,20.0,11.0,30.37,WNW,301,3.0,7.0,68,0.00,,,0.00,,2013-02-15 11:11:00,
2013-02-15 05:22:00,20.0,11.0,30.37,NW,316,2.0,6.0,68,0.00,,,0.00,,2013-02-15 11:22:00,
2013-02-15 05:32:00,19.0,11.0,30.38,WNW,287,2.0,3.0,69,0.00,,,0.00,,2013-02-15 11:32:00,
2013-02-15 05:42:00,19.0,11.0,30.38,WNW,287,2.0,3.0,69,0.00,,,0.00,,2013-02-15 11:42:00,
2013-02-15 05:52:00,19.0,11.0,30.39,WNW,294,0.0,4.0,70,0.00,,,0.00,,2013-02-15 11:52:00,
2013-02-15 06:02:00,18.0,11.0,30.39,WNW,300,0.0,2.0,72,0.00,,,0.00,,2013-02-15 12:02:00,
2013-02-15 06:11:00,18.0,11.0,30.39,WNW,300,0.0,2.0,72,0.00,,,0.00,,2013-02-15 12:11:00,
2013-02-15 06:21:00,18.0,11.0,30.39,WNW,302,1.0,2.0,73,0.00,,,0.00,,2013-02-15 12:21:00,
2013-02-15 06:32:00,18.0,11.0,30.40,WNW,293,0.0,3.0,75,0.00,,,0.00,,2013-02-15 12:32:00,
2013-02-15 06:42:00,18.0,11.0,30.40,WNW,293,0.0,3.0,75,0.00,,,0.00,,2013-02-15 12:42:00,
2013-02-15 06:52:00,18.0,12.0,30.40,WNW,293,1.0,2.0,76,0.00,,,0.00,,2013-02-15 12:52:00,
2013-02-15 07:02:00,17.0,11.0,30.40,WNW,292,2.0,3.0,77,0.00,,,0.00,,2013-02-15 13:02:00,
2013-02-15 07:11:00,17.0,11.0,30.41,WNW,292,1.0,4.0,78,0.00,,,0.00,,2013-02-15 13:11:00,
2013-02-15 07:21:00,17.0,11.0,30.41,WNW,292,1.0,4.0,78,0.00,,,0.00,,2013-02-15 13:21:00,
2013-02-15 07:32:00,17.0,12.0,30.41,WNW,296,2.0,6.0,79,0.00,,,0.00,,2013-02-15 13:32:00,
2013-02-15 07:41:00,17.0,12.0,30.41,WNW,296,2.0,6.0,79,0.00,,,0.00,,2013-02-15 13:41:00,
2013-02-15 07:52:00,17.0,12.0,30.41,WNW,298,2.0,5.0,79,0.00,,,0.00,,2013-02-15 13:52:00,
2013-02-15 08:01:00,17.0,11.0,30.42,WNW,293,3.0,6.0,78,0.00,,,0.00,,2013-02-15 14:01:00,
2013-02-15 08:11:00,17.0,11.0,30.42,WNW,293,3.0,6.0,78,0.00,,,0.00,,2013-02-15 14:11:00,
2013-02-15 08:21:00,17.0,11.0,30.42,WNW,293,4.0,8.0,77,0.00,,,0.00,,2013-02-15 14:21:00,
2013-02-15 08:32:00,18.0,11.0,30.44,WNW,292,4.0,7.0,74,0.00,,,0.00,,2013-02-15 14:32:00,
2013-02-15 08:41:00,18.0,11.0,30.44,WNW,292,4.0,7.0,74,0.00,,,0.00,,2013-02-15 14:41:00,
2013-02-15 08:52:00,19.0,12.0,30.44,WNW,286,5.0,6.0,73,0.00,,,0.00,,2013-02-15 14:52:00,
2013-02-15 09:01:00,20.0,11.0,30.45,WNW,303,3.0,10.0,69,0.00,,,0.00,,2013-02-15 15:01:00,
2013-02-15 09:11:00,20.0,11.0,30.45,WNW,303,3.0,10.0,69,0.00,,,0.00,,2013-02-15 15:11:00,
2013-02-15 09:21:00,20.0,11.0,30.45,WNW,289,4.0,9.0,68,0.00,,,0.00,,2013-02-15 15:21:00,
2013-02-15 09:32:00,20.0,11.0,30.45,WNW,301,6.0,10.0,66,0.00,,,0.00,,2013-02-15 15:32:00,
2013-02-15 09:42:00,21.0,11.0,30.45,WNW,290,7.0,11.0,65,0.00,,,0.00,,2013-02-15 15:42:00,
2013-02-15 09:51:00,21.0,11.0,30.45,WNW,290,7.0,11.0,65,0.00,,,0.00,,2013-02-15 15:51:00,
2013-02-15 10:01:00,21.0,10.0,30.45,NW,304,5.0,11.0,63,0.00,,,0.00,,2013-02-15 16:01:00,
2013-02-15 10:11:00,21.0,10.0,30.45,NW,304,5.0,11.0,63,0.00,,,0.00,,2013-02-15 16:11:00,
2013-02-15 10:22:00,22.0,11.0,30.44,NW,313,4.0,9.0,63,0.00,,,0.00,,2013-02-15 16:22:00,
2013-02-15 10:32:00,23.0,11.0,30.44,NW,308,3.0,8.0,59,0.00,,,0.00,,2013-02-15 16:32:00,
2013-02-15 10:42:00,23.0,11.0,30.44,NW,308,3.0,8.0,59,0.00,,,0.00,,2013-02-15 16:42:00,
2013-02-15 10:51:00,24.0,12.0,30.44,WNW,290,3.0,7.0,60,0.00,,,0.00,,2013-02-15 16:51:00,
2013-02-15 11:01:00,25.0,13.0,30.43,North,350,5.0,8.0,61,0.00,,,0.00,,2013-02-15 17:01:00,
2013-02-15 11:11:00,26.0,14.0,30.43,NW,321,6.0,10.0,61,0.00,,,0.00,,2013-02-15 17:11:00,
2013-02-15 11:21:00,26.0,14.0,30.43,NW,321,6.0,10.0,61,0.00,,,0.00,,2013-02-15 17:21:00,
2013-02-15 11:32:00,27.0,16.0,30.43,WNW,301,8.0,13.0,62,0.00,,,0.00,,2013-02-15 17:32:00,
2013-02-15 11:41:00,27.0,16.0,30.43,WNW,301,8.0,13.0,62,0.00,,,0.00,,2013-02-15 17:41:00,
2013-02-15 11:52:00,27.0,17.0,30.43,WNW,299,6.0,18.0,65,0.00,,,0.00,,2013-02-15 17:52:00,
2013-02-15 12:01:00,27.0,16.0,30.42,WNW,293,6.0,13.0,63,0.00,,,0.00,,2013-02-15 18:01:00,
2013-02-15 12:11:00,27.0,16.0,30.42,WNW,293,6.0,13.0,63,0.00,,,0.00,,2013-02-15 18:11:00,
2013-02-15 12:21:00,27.0,16.0,30.41,NW,308,7.0,16.0,64,0.00,,,0.00,,2013-02-15 18:21:00,
2013-02-15 12:31:00,29.0,18.0,30.42,NW,322,6.0,11.0,62,0.00,,,0.00,,2013-02-15 18:31:00,
2013-02-15 12:41:00,29.0,18.0,30.42,NW,322,6.0,11.0,62,0.00,,,0.00,,2013-02-15 18:41:00,
2013-02-15 12:52:00,29.0,16.0,30.41,WNW,290,11.0,18.0,59,0.00,,,0.00,,2013-02-15 18:52:00,
2013-02-15 13:01:00,29.0,17.0,30.40,WNW,300,5.0,11.0,61,0.00,,,0.00,,2013-02-15 19:01:00,
2013-02-15 13:11:00,29.0,17.0,30.40,WNW,300,5.0,11.0,61,0.00,,,0.00,,2013-02-15 19:11:00,
2013-02-15 13:22:00,29.0,17.0,30.39,NW,314,6.0,10.0,61,0.00,,,0.00,,2013-02-15 19:22:00,
2013-02-15 13:32:00,30.0,17.0,30.39,North,349,6.0,13.0,58,0.00,,,0.00,,2013-02-15 19:32:00,
2013-02-15 13:41:00,30.0,17.0,30.39,North,349,6.0,13.0,58,0.00,,,0.00,,2013-02-15 19:41:00,
2013-02-15 13:52:00,29.0,16.0,30.38,NNW,335,6.0,10.0,57,0.00,,,0.00,,2013-02-15 19:52:00,
2013-02-15 14:01:00,30.0,15.0,30.38,WNW,300,7.0,16.0,54,0.00,,,0.00,,2013-02-15 20:01:00,
2013-02-15 14:11:00,30.0,15.0,30.38,WNW,300,7.0,16.0,54,0.00,,,0.00,,2013-02-15 20:11:00,
2013-02-15 14:21:00,32.0,17.0,30.37,NW,311,5.0,13.0,53,0.00,,,0.00,,2013-02-15 20:21:00,
2013-02-15 14:32:00,32.0,16.0,30.37,NW,307,5.0,13.0,51,0.00,,,0.00,,2013-02-15 20:32:00,
2013-02-15 14:42:00,32.0,16.0,30.37,NW,307,5.0,13.0,51,0.00,,,0.00,,2013-02-15 20:42:00,
2013-02-15 14:52:00,32.0,17.0,30.36,NNW,334,5.0,19.0,54,0.00,,,0.00,,2013-02-15 20:52:00,
2013-02-15 15:01:00,33.0,15.0,30.36,WNW,294,9.0,14.0,47,0.00,,,0.00,,2013-02-15 21:01:00,
2013-02-15 15:11:00,33.0,15.0,30.36,WNW,294,9.0,14.0,47,0.00,,,0.00,,2013-02-15 21:11:00,
2013-02-15 15:21:00,33.0,15.0,30.36,NNW,332,6.0,11.0,47,0.00,,,0.00,,2013-02-15 21:21:00,
2013-02-15 15:31:00,33.0,16.0,30.37,WNW,299,6.0,9.0,49,0.00,,,0.00,,2013-02-15 21:31:00,
2013-02-15 15:42:00,33.0,16.0,30.37,WNW,299,6.0,9.0,49,0.00,,,0.00,,2013-02-15 21:42:00,
2013-02-15 15:51:00,33.0,15.0,30.37,NNW,330,5.0,10.0,47,0.00,,,0.00,,2013-02-15 21:51:00,
2013-02-15 16:02:00,33.0,15.0,30.37,NW,309,4.0,8.0,48,0.00,,,0.00,,2013-02-15 22:02:00,
2013-02-15 16:11:00,33.0,15.0,30.37,North,349,5.0,9.0,48,0.00,,,0.00,,2013-02-15 22:11:00,
2013-02-15 16:21:00,33.0,15.0,30.37,North,349,5.0,9.0,48,0.00,,,0.00,,2013-02-15 22:21:00,
2013-02-15 16:31:00,33.0,16.0,30.37,NNW,336,3.0,8.0,49,0.00,,,0.00,,2013-02-15 22:31:00,
2013-02-15 16:41:00,33.0,16.0,30.37,NNW,336,3.0,8.0,49,0.00,,,0.00,,2013-02-15 22:41:00,
2013-02-15 16:51:00,32.0,15.0,30.37,North,354,5.0,6.0,49,0.00,,,0.00,,2013-02-15 22:51:00,
2013-02-15 17:02:00,32.0,15.0,30.37,NNW,348,4.0,8.0,50,0.00,,,0.00,,2013-02-15 23:02:00,
2013-02-15 17:11:00,32.0,15.0,30.37,NNW,348,4.0,8.0,50,0.00,,,0.00,,2013-02-15 23:11:00,
2013-02-15 17:21:00,32.0,15.0,30.37,NNW,348,5.0,9.0,49,0.00,,,0.00,,2013-02-15 23:21:00,
2013-02-15 17:31:00,31.0,15.0,30.37,North,358,3.0,6.0,51,0.00,,,0.00,,2013-02-15 23:31:00,
2013-02-15 17:42:00,31.0,15.0,30.37,North,358,3.0,6.0,51,0.00,,,0.00,,2013-02-15 23:42:00,
2013-02-15 17:52:00,30.0,15.0,30.37,NNE,21,2.0,6.0,52,0.00,,,0.00,,2013-02-15 23:52:00,
2013-02-15 18:02:00,30.0,15.0,30.37,North,5,0.0,5.0,53,0.00,,,0.00,,2013-02-16 00:02:00,
2013-02-15 18:11:00,30.0,15.0,30.37,North,5,0.0,5.0,53,0.00,,,0.00,,2013-02-16 00:11:00,
2013-02-15 18:21:00,29.0,15.0,30.37,North,5,0.0,0.0,55,0.00,,,0.00,,2013-02-16 00:21:00,
2013-02-15 18:32:00,29.0,15.0,30.37,North,3,1.0,1.0,55,0.00,,,0.00,,2013-02-16 00:32:00,
2013-02-15 18:41:00,29.0,15.0,30.37,North,3,1.0,1.0,55,0.00,,,0.00,,2013-02-16 00:41:00,
2013-02-15 18:51:00,28.0,15.0,30.37,North,5,2.0,3.0,57,0.00,,,0.00,,2013-02-16 00:51:00,
2013-02-15 19:02:00,28.0,15.0,30.37,North,360,0.0,0.0,57,0.00,,,0.00,,2013-02-16 01:02:00,
2013-02-15 19:11:00,28.0,15.0,30.37,North,360,0.0,0.0,57,0.00,,,0.00,,2013-02-16 01:11:00,
2013-02-15 19:21:00,27.0,14.0,30.37,North,5,0.0,0.0,58,0.00,,,0.00,,2013-02-16 01:21:00,
2013-02-15 19:31:00,27.0,15.0,30.37,North,360,0.0,0.0,59,0.00,,,0.00,,2013-02-16 01:31:00,
2013-02-15 19:41:00,27.0,15.0,30.37,North,360,0.0,0.0,59,0.00,,,0.00,,2013-02-16 01:41:00,
2013-02-15 19:52:00,27.0,15.0,30.38,North,5,0.0,0.0,60,0.00,,,0.00,,2013-02-16 01:52:00,
2013-02-15 20:01:00,27.0,15.0,30.38,North,5,0.0,0.0,60,0.00,,,0.00,,2013-02-16 02:01:00,
2013-02-15 20:11:00,27.0,15.0,30.38,North,5,0.0,0.0,60,0.00,,,0.00,,2013-02-16 02:11:00,
2013-02-15 20:21:00,27.0,15.0,30.38,North,5,0.0,0.0,60,0.00,,,0.00,,2013-02-16 02:21:00,
2013-02-15 20:31:00,27.0,15.0,30.38,North,360,0.0,0.0,61,0.00,,,0.00,,2013-02-16 02:31:00,
2013-02-15 20:42:00,27.0,15.0,30.38,North,360,0.0,0.0,61,0.00,,,0.00,,2013-02-16 02:42:00,
2013-02-15 20:52:00,27.0,16.0,30.38,North,360,0.0,1.0,62,0.00,,,0.00,,2013-02-16 02:52:00,
2013-02-15 21:01:00,27.0,16.0,30.38,North,360,0.0,0.0,63,0.00,,,0.00,,2013-02-16 03:01:00,
2013-02-15 21:11:00,27.0,16.0,30.38,North,5,0.0,0.0,64,0.00,,,0.00,,2013-02-16 03:11:00,
2013-02-15 21:21:00,27.0,16.0,30.38,North,5,0.0,0.0,64,0.00,,,0.00,,2013-02-16 03:21:00,
2013-02-15 21:31:00,26.0,16.0,30.38,North,5,0.0,0.0,64,0.00,,,0.00,,2013-02-16 03:31:00,
2013-02-15 21:41:00,26.0,16.0,30.38,North,5,0.0,0.0,64,0.00,,,0.00,,2013-02-16 03:41:00,
2013-02-15 21:52:00,26.0,16.0,30.38,North,5,0.0,0.0,65,0.00,,,0.00,,2013-02-16 03:52:00,
2013-02-15 22:01:00,25.0,16.0,30.38,North,5,0.0,0.0,68,0.00,,,0.00,,2013-02-16 04:01:00,
2013-02-15 22:11:00,25.0,16.0,30.39,NW,318,2.0,3.0,68,0.00,,,0.00,,2013-02-16 04:11:00,
2013-02-15 22:21:00,25.0,16.0,30.39,NW,318,2.0,3.0,68,0.00,,,0.00,,2013-02-16 04:21:00,
2013-02-15 22:32:00,25.0,15.0,30.38,NNE,19,0.0,2.0,65,0.00,,,0.00,,2013-02-16 04:32:00,
2013-02-15 22:41:00,25.0,15.0,30.38,NNE,19,0.0,2.0,65,0.00,,,0.00,,2013-02-16 04:41:00,
2013-02-15 22:51:00,25.0,15.0,30.38,NNE,19,1.0,2.0,66,0.00,,,0.00,,2013-02-16 04:51:00,
2013-02-15 23:01:00,24.0,15.0,30.39,NNE,19,0.0,2.0,69,0.00,,,0.00,,2013-02-16 05:01:00,
2013-02-15 23:12:00,24.0,15.0,30.39,NNE,19,0.0,2.0,69,0.00,,,0.00,,2013-02-16 05:12:00,
2013-02-15 23:22:00,24.0,16.0,30.39,NNE,19,0.0,1.0,70,0.00,,,0.00,,2013-02-16 05:22:00,
2013-02-15 23:32:00,23.0,15.0,30.38,NNE,18,0.0,0.0,72,0.00,,,0.00,,2013-02-16 05:32:00,
2013-02-15 23:42:00,23.0,15.0,30.38,NNE,18,0.0,0.0,72,0.00,,,0.00,,2013-02-16 05:42:00,
2013-02-15 23:52:00,23.0,16.0,30.38,NNE,18,0.0,0.0,73,0.00,,,0.00,,2013-02-16 05:52:00,